createdAt,value
2022-09-26T00:01:43.691Z,99.90
2022-09-26T00:04:16.739Z,99.90
2022-09-26T00:06:45.154Z,99.90
2022-09-26T00:09:14.533Z,99.90
2022-09-26T00:11:45.225Z,99.90
2022-09-26T00:14:18.741Z,99.90
2022-09-26T00:16:47.893Z,99.90
2022-09-26T00:19:16.421Z,99.90
2022-09-26T00:21:44.863Z,99.90
2022-09-26T00:24:13.215Z,99.90
2022-09-26T00:26:42.698Z,99.90
2022-09-26T00:29:13.648Z,99.90
2022-09-26T00:31:45.994Z,99.90
2022-09-26T00:34:15.982Z,99.90
2022-09-26T00:36:44.228Z,99.90
2022-09-26T00:39:15.384Z,99.90
2022-09-26T00:41:45.706Z,99.90
2022-09-26T00:44:42.263Z,99.90
2022-09-26T00:47:38.085Z,99.90
2022-09-26T00:50:14.924Z,99.90
2022-09-26T00:52:50.475Z,99.90
2022-09-26T00:55:24.068Z,99.90
2022-09-26T00:58:04.424Z,99.90
2022-09-26T01:00:32.815Z,99.90
2022-09-26T01:03:02.147Z,99.90
2022-09-26T01:05:32.237Z,99.90
2022-09-26T01:08:01.873Z,99.90
2022-09-26T01:10:31.213Z,99.90
2022-09-26T01:13:04.062Z,99.90
2022-09-26T01:15:32.319Z,99.90
2022-09-26T01:18:00.433Z,99.90
2022-09-26T01:20:37.534Z,99.90
2022-09-26T01:23:54.835Z,99.90
2022-09-26T01:27:21.903Z,99.90
2022-09-26T01:30:17.690Z,99.90
2022-09-26T01:33:26.954Z,99.90
2022-09-26T01:36:34.735Z,99.90
2022-09-26T01:39:23.521Z,99.90
2022-09-26T01:42:00.612Z,99.90
2022-09-26T01:44:39.882Z,99.90
2022-09-26T01:47:17.835Z,99.90
2022-09-26T01:49:55.952Z,99.90
2022-09-26T01:52:34.131Z,99.90
2022-09-26T01:55:10.578Z,99.90
2022-09-26T01:57:44.776Z,99.90
2022-09-26T02:00:14.176Z,99.90
2022-09-26T02:02:47.508Z,99.90
2022-09-26T02:05:26.560Z,99.90
2022-09-26T02:08:01.066Z,99.90
2022-09-26T02:10:36.013Z,99.90
2022-09-26T02:13:12.521Z,99.90
2022-09-26T02:15:41.444Z,99.90
2022-09-26T02:18:19.963Z,99.90
2022-09-26T02:20:56.072Z,99.90
2022-09-26T02:23:24.093Z,99.90
2022-09-26T02:25:52.117Z,99.90
2022-09-26T02:28:20.709Z,99.90
2022-09-26T02:30:53.310Z,99.90
2022-09-26T02:33:22.706Z,99.90
2022-09-26T02:35:57.445Z,99.90
2022-09-26T02:38:29.610Z,99.90
2022-09-26T02:41:06.835Z,99.90
2022-09-26T02:43:51.245Z,99.90
2022-09-26T02:47:11.390Z,99.90
2022-09-26T02:50:04.300Z,99.90
2022-09-26T02:52:45.913Z,99.90
2022-09-26T02:55:23.059Z,99.90
2022-09-26T02:58:05.512Z,99.90
2022-09-26T03:00:53.347Z,99.90
2022-09-26T03:03:32.841Z,99.90
2022-09-26T03:06:06.993Z,99.90
2022-09-26T03:08:41.905Z,99.90
2022-09-26T03:11:17.655Z,99.90
2022-09-26T03:13:48.334Z,99.90
2022-09-26T03:16:16.706Z,99.90
2022-09-26T03:18:53.433Z,99.90
2022-09-26T03:21:23.184Z,99.90
2022-09-26T03:23:52.057Z,99.90
2022-09-26T03:26:24.623Z,99.90
2022-09-26T03:28:53.883Z,94.20
2022-09-26T03:31:22.305Z,90.50
2022-09-26T03:33:50.462Z,79.10
2022-09-26T03:36:19.048Z,82.90
2022-09-26T03:38:48.685Z,82.80
2022-09-26T03:41:16.835Z,69.10
2022-09-26T03:43:44.850Z,64.80
2022-09-26T03:46:13.772Z,80.10
2022-09-26T03:48:42.118Z,88.70
2022-09-26T03:51:13.637Z,97.10
2022-09-26T03:53:45.442Z,99.90
2022-09-26T03:56:17.975Z,99.90
2022-09-26T03:58:48.994Z,99.90
2022-09-26T04:01:20.999Z,99.90
2022-09-26T04:03:51.552Z,99.90
2022-09-26T04:06:21.138Z,99.90
2022-09-26T04:08:51.864Z,99.90
2022-09-26T04:11:24.549Z,99.90
2022-09-26T04:13:54.060Z,99.90
2022-09-26T04:16:23.865Z,99.90
2022-09-26T04:18:57.577Z,99.90
2022-09-26T04:21:27.283Z,99.90
2022-09-26T04:23:56.040Z,99.90
2022-09-26T04:26:25.541Z,99.90
2022-09-26T04:28:56.950Z,99.90
2022-09-26T04:31:27.712Z,99.90
2022-09-26T04:33:56.306Z,99.90
2022-09-26T04:36:25.135Z,99.90
2022-09-26T04:38:53.219Z,99.90
2022-09-26T04:41:23.084Z,99.90
2022-09-26T04:43:54.603Z,99.90
2022-09-26T04:46:30.210Z,99.90
2022-09-26T04:49:02.401Z,99.90
2022-09-26T04:51:32.919Z,99.90
2022-09-26T04:54:00.960Z,99.90
2022-09-26T04:56:30.847Z,99.90
2022-09-26T04:59:01.174Z,99.90
2022-09-26T05:01:29.624Z,99.90
2022-09-26T05:03:58.376Z,99.90
2022-09-26T05:06:26.656Z,99.90
2022-09-26T05:08:55.006Z,99.90
2022-09-26T05:11:23.033Z,99.90
2022-09-26T05:13:53.597Z,99.90
2022-09-26T05:16:24.018Z,99.90
2022-09-26T05:18:53.314Z,99.90
2022-09-26T05:21:21.574Z,99.90
2022-09-26T05:24:07.210Z,99.90
2022-09-26T05:26:43.025Z,99.90
2022-09-26T05:29:12.145Z,99.90
2022-09-26T05:31:41.773Z,99.90
2022-09-26T05:34:18.519Z,99.90
2022-09-26T05:36:48.318Z,99.90
2022-09-26T05:39:35.869Z,99.90
2022-09-26T05:42:08.515Z,99.90
2022-09-26T05:44:36.592Z,99.90
2022-09-26T05:47:06.129Z,99.90
2022-09-26T05:49:34.738Z,99.90
2022-09-26T05:52:03.878Z,99.90
2022-09-26T05:54:32.022Z,99.90
2022-09-26T05:57:00.499Z,99.90
2022-09-26T05:59:28.534Z,99.90
2022-09-26T06:01:57.550Z,99.90
2022-09-26T06:04:29.389Z,99.90
2022-09-26T06:06:57.395Z,99.90
2022-09-26T06:09:25.499Z,99.90
2022-09-26T06:11:53.465Z,99.90
2022-09-26T06:14:25.422Z,99.90
2022-09-26T06:16:53.580Z,99.90
2022-09-26T06:19:23.162Z,99.90
2022-09-26T06:21:52.793Z,99.90
2022-09-26T06:24:20.859Z,99.90
2022-09-26T06:26:48.863Z,99.90
2022-09-26T06:29:16.857Z,99.90
2022-09-26T06:31:45.042Z,99.90
2022-09-26T06:34:13.847Z,99.90
2022-09-26T06:36:41.874Z,99.90
2022-09-26T06:39:14.832Z,99.90
2022-09-26T06:41:43.058Z,99.90
2022-09-26T06:44:11.056Z,99.90
2022-09-26T06:46:39.108Z,99.90
2022-09-26T06:49:07.719Z,99.90
2022-09-26T06:51:38.024Z,99.90
2022-09-26T06:54:06.069Z,99.90
2022-09-26T06:56:35.487Z,99.90
2022-09-26T06:59:03.723Z,99.90
2022-09-26T07:01:32.496Z,99.90
2022-09-26T07:04:00.595Z,99.90
2022-09-26T07:06:29.023Z,99.90
2022-09-26T07:09:02.979Z,99.90
2022-09-26T07:11:50.528Z,99.90
2022-09-26T07:14:22.720Z,99.90
2022-09-26T07:16:52.046Z,99.90
2022-09-26T07:19:20.336Z,99.90
2022-09-26T07:21:49.484Z,99.90
2022-09-26T07:24:17.879Z,99.90
2022-09-26T07:26:45.859Z,99.90
2022-09-26T07:29:14.049Z,99.90
2022-09-26T07:31:43.618Z,99.90
2022-09-26T07:34:18.076Z,99.90
2022-09-26T07:36:47.401Z,99.90
2022-09-26T07:39:15.691Z,99.90
2022-09-26T07:41:45.969Z,99.90
2022-09-26T07:47:21.455Z,99.90
2022-09-26T07:50:06.983Z,99.90
2022-09-26T07:52:34.994Z,99.90
2022-09-26T07:55:03.004Z,99.90
2022-09-26T07:57:35.393Z,99.90
2022-09-26T08:00:05.825Z,99.90
2022-09-26T08:02:35.996Z,99.90
2022-09-26T08:05:05.965Z,99.90
2022-09-26T08:07:35.438Z,99.90
2022-09-26T08:10:05.545Z,99.90
2022-09-26T08:12:37.272Z,99.90
2022-09-26T08:15:07.099Z,99.90
2022-09-26T08:17:38.132Z,99.90
2022-09-26T08:20:07.866Z,99.90
2022-09-26T08:22:36.021Z,99.90
2022-09-26T08:25:06.777Z,99.90
2022-09-26T08:27:36.054Z,99.90
2022-09-26T08:30:05.242Z,99.90
2022-09-26T08:32:33.670Z,99.90
2022-09-26T08:35:03.048Z,99.90
2022-09-26T08:37:31.238Z,99.90
2022-09-26T08:40:00.658Z,99.90
2022-09-26T08:42:47.208Z,99.90
2022-09-26T08:46:03.429Z,99.90
2022-09-26T08:48:54.821Z,99.90
2022-09-26T08:51:33.384Z,99.90
2022-09-26T08:54:12.185Z,99.90
2022-09-26T08:56:47.051Z,99.90
2022-09-26T08:59:28.148Z,99.90
2022-09-26T09:02:01.518Z,99.90
2022-09-26T09:04:42.896Z,99.90
2022-09-26T09:07:23.618Z,99.90
2022-09-26T09:09:56.566Z,1.00
2022-09-26T09:12:44.230Z,1.00
2022-09-26T09:15:38.964Z,1.00
2022-09-26T09:18:24.266Z,1.00
2022-09-26T09:21:00.026Z,1.00
2022-09-26T09:23:59.796Z,1.00
2022-09-26T09:30:03.432Z,1.00
2022-09-26T09:32:49.756Z,1.00
2022-09-26T09:35:26.359Z,1.00
2022-09-26T09:37:56.090Z,99.90
2022-09-26T09:40:34.929Z,99.90
2022-09-26T09:43:08.028Z,99.90
2022-09-26T09:45:46.115Z,1.00
2022-09-26T09:48:16.225Z,1.00
2022-09-26T09:51:05.467Z,1.00
2022-09-26T09:54:25.240Z,1.00
2022-09-26T09:57:28.801Z,1.00
2022-09-26T10:00:12.643Z,99.90
2022-09-26T10:02:52.656Z,99.90
2022-09-26T10:05:36.001Z,1.00
2022-09-26T10:08:09.729Z,99.90
2022-09-26T10:10:48.118Z,1.00
2022-09-26T10:13:19.121Z,99.90
2022-09-26T10:15:58.016Z,1.00
2022-09-26T10:18:27.346Z,99.90
2022-09-26T10:20:58.689Z,99.90
2022-09-26T10:23:34.473Z,1.00
2022-09-26T10:26:06.849Z,76.50
2022-09-26T10:28:46.827Z,1.00
2022-09-26T10:31:25.838Z,1.00
2022-09-26T10:34:00.055Z,72.70
2022-09-26T10:36:34.858Z,1.00
2022-09-26T10:39:35.363Z,1.00
2022-09-26T10:42:06.924Z,99.90
2022-09-26T10:44:37.157Z,99.90
2022-09-26T10:47:09.221Z,99.90
2022-09-26T10:49:46.425Z,1.00
2022-09-26T10:52:24.487Z,66.70
2022-09-26T10:55:00.565Z,1.00
2022-09-26T10:57:39.852Z,1.00
2022-09-26T11:00:16.897Z,1.00
2022-09-26T11:02:51.793Z,1.00
2022-09-26T11:05:38.914Z,1.00
2022-09-26T11:08:10.070Z,1.00
2022-09-26T11:10:41.582Z,1.00
2022-09-26T11:13:19.733Z,1.00
2022-09-26T11:16:01.179Z,1.00
2022-09-26T11:18:48.884Z,1.00
2022-09-26T11:21:29.123Z,1.00
2022-09-26T11:24:11.715Z,1.00
2022-09-26T11:26:52.767Z,1.00
2022-09-26T11:32:31.258Z,1.00
2022-09-26T11:35:04.034Z,1.00
2022-09-26T11:38:05.699Z,1.00
2022-09-26T11:41:00.795Z,1.00
2022-09-26T11:43:52.278Z,1.00
2022-09-26T11:46:39.840Z,1.00
2022-09-26T11:49:46.046Z,99.90
2022-09-26T11:52:49.319Z,99.90
2022-09-26T11:55:31.416Z,99.90
2022-09-26T11:58:10.837Z,99.90
2022-09-26T12:00:57.963Z,99.90
2022-09-26T12:04:01.621Z,99.90
2022-09-26T12:06:41.943Z,99.90
2022-09-26T12:09:32.451Z,99.90
2022-09-26T12:12:15.223Z,99.90
2022-09-26T12:15:02.865Z,99.90
2022-09-26T12:17:49.798Z,99.90
2022-09-26T12:20:38.857Z,99.90
2022-09-26T12:23:22.415Z,99.90
2022-09-26T12:26:08.527Z,99.90
2022-09-26T12:29:06.277Z,99.90
2022-09-26T12:32:01.407Z,99.90
2022-09-26T12:35:02.629Z,99.90
2022-09-26T12:37:59.191Z,99.90
2022-09-26T12:40:40.821Z,99.90
2022-09-26T12:43:49.865Z,99.90
2022-09-26T12:46:54.364Z,99.90
2022-09-26T12:49:54.419Z,99.90
2022-09-26T12:52:45.430Z,99.90
2022-09-26T12:55:31.000Z,99.90
2022-09-26T12:58:19.262Z,99.90
2022-09-26T13:00:59.955Z,99.90
2022-09-26T13:04:05.014Z,99.90
2022-09-26T13:07:18.328Z,99.90
2022-09-26T13:10:38.575Z,99.90
2022-09-26T13:13:48.729Z,99.90
2022-09-26T13:16:34.132Z,99.90
2022-09-26T13:19:23.697Z,99.90
2022-09-26T13:22:00.082Z,99.90
2022-09-26T13:24:49.551Z,99.90
2022-09-26T13:27:24.041Z,99.90
2022-09-26T13:30:03.463Z,99.90
2022-09-26T13:32:43.744Z,99.90
2022-09-26T13:35:21.011Z,99.90
2022-09-26T13:38:14.842Z,99.90
2022-09-26T13:40:53.770Z,99.90
2022-09-26T13:43:49.882Z,99.90
2022-09-26T13:46:36.229Z,99.90
2022-09-26T13:49:27.639Z,99.90
2022-09-26T13:52:19.095Z,99.90
2022-09-26T13:55:02.214Z,99.90
2022-09-26T13:57:39.674Z,99.90
2022-09-26T14:00:48.730Z,99.90
2022-09-26T14:03:42.181Z,99.90
2022-09-26T14:06:32.088Z,99.90
2022-09-26T14:09:39.297Z,99.90
2022-09-26T14:12:33.128Z,99.90
2022-09-26T14:15:22.650Z,99.90
2022-09-26T14:18:34.737Z,99.90
2022-09-26T14:21:31.870Z,99.90
2022-09-26T14:24:39.352Z,99.90
2022-09-26T14:27:43.508Z,99.90
2022-09-26T14:30:29.045Z,99.90
2022-09-26T14:33:04.400Z,99.90
2022-09-26T14:35:35.546Z,99.90
2022-09-26T14:38:13.633Z,99.90
2022-09-26T14:40:56.665Z,99.90
2022-09-26T14:43:31.231Z,99.90
2022-09-26T14:46:05.398Z,99.90
2022-09-26T14:48:37.670Z,99.90
2022-09-26T14:51:23.265Z,99.90
2022-09-26T14:54:02.406Z,99.90
2022-09-26T14:56:41.931Z,99.90
2022-09-26T14:59:41.260Z,99.90
2022-09-26T15:02:26.842Z,99.90
2022-09-26T15:05:05.626Z,99.90
2022-09-26T15:07:42.219Z,99.90
2022-09-26T15:10:26.406Z,99.90
2022-09-26T15:13:08.764Z,99.90
2022-09-26T15:15:49.613Z,99.90
2022-09-26T15:18:34.678Z,99.90
2022-09-26T15:21:13.575Z,99.90
2022-09-26T15:23:50.721Z,99.90
2022-09-26T15:26:24.445Z,99.90
2022-09-26T15:28:56.504Z,99.90
2022-09-26T15:31:37.926Z,99.90
2022-09-26T15:34:16.260Z,1.00
2022-09-26T15:36:48.638Z,1.00
2022-09-26T15:39:42.773Z,1.00
2022-09-26T15:42:45.763Z,1.00
2022-09-26T15:45:30.492Z,1.00
2022-09-26T15:48:04.592Z,1.00
2022-09-26T15:50:42.143Z,1.00
2022-09-26T15:53:25.562Z,1.00
2022-09-26T15:56:01.392Z,1.00
2022-09-26T15:58:37.259Z,1.00
2022-09-26T16:01:06.924Z,1.00
2022-09-26T16:03:47.852Z,1.00
2022-09-26T16:06:35.740Z,1.00
2022-09-26T16:09:17.603Z,1.00
2022-09-26T16:11:51.111Z,1.00
2022-09-26T16:14:30.108Z,1.00
2022-09-26T16:17:12.514Z,1.00
2022-09-26T16:19:48.612Z,1.00
2022-09-26T16:22:40.420Z,1.00
2022-09-26T16:25:52.825Z,1.00
2022-09-26T16:28:41.880Z,1.00
2022-09-26T16:31:24.532Z,1.00
2022-09-26T16:33:56.726Z,1.00
2022-09-26T16:36:27.909Z,1.00
2022-09-26T16:38:59.697Z,1.00
2022-09-26T16:42:01.357Z,20.50
2022-09-26T16:44:33.573Z,93.70
2022-09-26T16:47:07.259Z,99.90
2022-09-26T16:49:46.710Z,99.90
2022-09-26T16:52:28.041Z,70.60
2022-09-26T16:54:57.564Z,43.40
2022-09-26T16:57:30.218Z,99.90
2022-09-26T17:00:19.752Z,99.90
2022-09-26T17:02:49.512Z,99.90
2022-09-26T17:05:21.263Z,99.90
2022-09-26T17:07:51.391Z,99.90
2022-09-26T17:10:24.171Z,99.90
2022-09-26T17:12:53.268Z,99.90
2022-09-26T17:15:28.615Z,99.90
2022-09-26T17:18:01.320Z,99.90
2022-09-26T17:20:30.173Z,99.90
2022-09-26T17:23:11.972Z,99.90
2022-09-26T17:25:52.951Z,99.90
2022-09-26T17:28:34.051Z,99.90
2022-09-26T17:31:06.463Z,99.90
2022-09-26T17:33:42.056Z,99.90
2022-09-26T17:36:20.664Z,99.90
2022-09-26T17:38:48.900Z,99.90
2022-09-26T17:41:17.201Z,99.90
2022-09-26T17:43:45.654Z,99.90
2022-09-26T17:46:16.711Z,99.90
2022-09-26T17:48:46.485Z,99.90
2022-09-26T17:51:14.979Z,1.00
2022-09-26T17:53:50.455Z,1.00
2022-09-26T17:56:20.589Z,1.00
2022-09-26T17:58:51.895Z,1.00
2022-09-26T18:01:27.336Z,1.00
2022-09-26T18:04:02.468Z,1.00
2022-09-26T18:06:33.862Z,1.00
2022-09-26T18:09:10.246Z,1.00
2022-09-26T18:11:41.647Z,1.00
2022-09-26T18:14:15.597Z,1.00
2022-09-26T18:16:44.823Z,1.00
2022-09-26T18:19:15.483Z,1.00
2022-09-26T18:21:43.685Z,1.00
2022-09-26T18:24:19.927Z,81.70
2022-09-26T18:26:51.154Z,99.90
2022-09-26T18:29:31.958Z,99.90
2022-09-26T18:32:01.376Z,99.90
2022-09-26T18:34:32.051Z,99.90
2022-09-26T18:37:01.682Z,1.00
2022-09-26T18:39:30.465Z,1.00
2022-09-26T18:42:04.993Z,1.00
2022-09-26T18:44:35.157Z,1.00
2022-09-26T18:47:06.770Z,99.90
2022-09-26T18:49:38.554Z,99.90
2022-09-26T18:52:11.975Z,99.90
2022-09-26T18:54:45.058Z,99.90
2022-09-26T18:57:31.762Z,99.90
2022-09-26T19:00:00.268Z,99.90
2022-09-26T19:02:38.394Z,1.00
2022-09-26T19:05:15.906Z,1.00
2022-09-26T19:07:45.083Z,99.90
2022-09-26T19:10:16.571Z,1.00
2022-09-26T19:12:44.869Z,1.00
2022-09-26T19:15:17.611Z,1.00
2022-09-26T19:17:45.751Z,1.00
2022-09-26T19:20:15.425Z,99.90
2022-09-26T19:22:43.828Z,1.00
2022-09-26T19:25:12.111Z,1.00
2022-09-26T19:27:49.567Z,99.90
2022-09-26T19:30:21.103Z,66.20
2022-09-26T19:32:52.794Z,1.00
2022-09-26T19:35:30.179Z,1.00
2022-09-26T19:37:59.364Z,1.00
2022-09-26T19:40:28.914Z,1.00
2022-09-26T19:42:58.091Z,1.00
2022-09-26T19:45:32.125Z,99.90
2022-09-26T19:48:00.990Z,99.90
2022-09-26T19:50:34.445Z,1.00
2022-09-26T19:53:04.539Z,99.90
2022-09-26T19:55:33.383Z,1.00
2022-09-26T19:58:11.720Z,1.00
2022-09-26T20:00:41.624Z,99.90
2022-09-26T20:03:18.456Z,99.90
2022-09-26T20:05:49.609Z,99.90
2022-09-26T20:08:22.093Z,99.90
2022-09-26T20:10:50.850Z,1.00
2022-09-26T20:13:19.490Z,1.00
2022-09-26T20:15:48.840Z,1.00
2022-09-26T20:18:22.081Z,1.00
2022-09-26T20:20:55.768Z,1.00
2022-09-26T20:23:28.007Z,1.00
2022-09-26T20:25:57.356Z,1.00
2022-09-26T20:28:25.436Z,1.00
2022-09-26T20:30:52.686Z,1.00
2022-09-26T20:33:23.054Z,1.00
2022-09-26T20:36:01.744Z,1.00
2022-09-26T20:38:36.557Z,1.00
2022-09-26T20:41:13.868Z,1.00
2022-09-26T20:43:47.012Z,1.00
2022-09-26T20:46:15.642Z,1.00
2022-09-26T20:48:48.391Z,1.00
2022-09-26T20:51:21.825Z,1.00
2022-09-26T20:53:49.939Z,1.00
2022-09-26T20:56:22.197Z,1.00
2022-09-26T20:58:50.574Z,1.00
2022-09-26T21:01:21.579Z,1.00
2022-09-26T21:03:52.716Z,1.00
2022-09-26T21:06:26.630Z,1.00
2022-09-26T21:08:54.746Z,1.00
2022-09-26T21:11:23.698Z,1.00
2022-09-26T21:13:51.832Z,1.00
2022-09-26T21:16:22.911Z,3.30
2022-09-26T21:18:53.613Z,10.00
2022-09-26T21:21:26.720Z,15.60
2022-09-26T21:23:56.326Z,15.10
2022-09-26T21:26:27.171Z,23.00
2022-09-26T21:28:57.180Z,31.00
2022-09-26T21:31:29.384Z,34.30
2022-09-26T21:34:00.272Z,38.60
2022-09-26T21:36:36.662Z,40.90
2022-09-26T21:39:06.059Z,40.10
2022-09-26T21:41:34.587Z,41.60
2022-09-26T21:44:07.307Z,46.00
2022-09-26T21:46:35.502Z,46.20
2022-09-26T21:49:04.151Z,53.80
2022-09-26T21:51:33.915Z,54.80
2022-09-26T21:54:07.353Z,52.40
2022-09-26T21:56:50.163Z,56.40
2022-09-26T21:59:22.332Z,60.40
2022-09-26T22:01:50.551Z,63.30
2022-09-26T22:04:19.031Z,65.90
2022-09-26T22:06:48.432Z,68.90
2022-09-26T22:09:16.756Z,75.70
2022-09-26T22:11:44.926Z,73.00
2022-09-26T22:14:14.064Z,74.10
2022-09-26T22:16:42.318Z,72.00
2022-09-26T22:19:10.805Z,61.90
2022-09-26T22:21:39.025Z,67.80
2022-09-26T22:24:08.505Z,67.80
2022-09-26T22:26:36.771Z,63.10
2022-09-26T22:29:05.131Z,59.70
2022-09-26T22:31:33.255Z,58.00
2022-09-26T22:34:01.350Z,58.90
2022-09-26T22:36:29.413Z,55.20
2022-09-26T22:38:57.521Z,55.40
2022-09-26T22:41:27.047Z,50.10
2022-09-26T22:43:55.150Z,48.30
2022-09-26T22:46:23.426Z,40.10
2022-09-26T22:48:51.594Z,32.60
2022-09-26T22:51:20.018Z,27.50
2022-09-26T22:53:48.070Z,23.00
2022-09-26T22:56:16.703Z,21.70
2022-09-26T22:58:49.228Z,16.30
2022-09-26T23:01:19.703Z,12.70
2022-09-26T23:03:47.914Z,7.70
2022-09-26T23:06:16.353Z,8.60
2022-09-26T23:08:44.442Z,14.90
2022-09-26T23:11:14.520Z,11.80
2022-09-26T23:13:42.739Z,17.40
2022-09-26T23:16:17.021Z,17.30
2022-09-26T23:18:45.829Z,19.60
2022-09-26T23:21:16.678Z,24.70
2022-09-26T23:23:46.432Z,29.20
2022-09-26T23:26:21.344Z,33.60
2022-09-26T23:28:49.980Z,36.60
2022-09-26T23:31:20.414Z,40.00
2022-09-26T23:33:48.588Z,42.80
2022-09-26T23:36:17.077Z,41.40
2022-09-26T23:38:45.561Z,40.20
2022-09-26T23:41:14.483Z,36.30
2022-09-26T23:43:46.343Z,38.30
2022-09-26T23:46:14.869Z,33.10
2022-09-26T23:48:44.725Z,37.70
2022-09-26T23:51:12.844Z,37.80
2022-09-26T23:53:40.913Z,38.30
2022-09-26T23:56:12.211Z,36.90
2022-09-26T23:58:40.385Z,39.90
